sensor_id;sensor_type;location;lat;lon;timestamp;noise_LAeq;noise_LA_min;noise_LA_max;noise_LA01;noise_LA95
56099;Laerm;44276;49.534;6.378;2023-03-23T00:00:08;42.18;40.23;46.64;;
56099;Laerm;44276;49.534;6.378;2023-03-23T00:02:36;41.92;39.92;44.62;;
56099;Laerm;44276;49.534;6.378;2023-03-23T00:05:05;42.12;40.03;46.57;;
56099;Laerm;44276;49.534;6.378;2023-03-23T00:07:34;42.14;39.70;44.73;;
56099;Laerm;44276;49.534;6.378;2023-03-23T00:10:03;42.19;40.13;46.07;;
56099;Laerm;44276;49.534;6.378;2023-03-23T00:12:31;42.40;40.13;49.41;;
56099;Laerm;44276;49.534;6.378;2023-03-23T00:15:02;42.15;40.03;48.51;;
56099;Laerm;44276;49.534;6.378;2023-03-23T00:17:31;42.33;39.92;50.82;;
56099;Laerm;44276;49.534;6.378;2023-03-23T00:19:59;42.96;39.46;50.84;;
56099;Laerm;44276;49.534;6.378;2023-03-23T00:22:29;41.88;39.81;45.04;;
56099;Laerm;44276;49.534;6.378;2023-03-23T00:24:56;41.87;39.34;45.48;;
56099;Laerm;44276;49.534;6.378;2023-03-23T00:27:23;42.15;40.03;51.89;;
56099;Laerm;44276;49.534;6.378;2023-03-23T00:29:51;42.24;39.70;52.36;;
56099;Laerm;44276;49.534;6.378;2023-03-23T00:32:22;41.99;39.70;46.97;;
56099;Laerm;44276;49.534;6.378;2023-03-23T00:34:53;41.69;39.46;45.01;;
56099;Laerm;44276;49.534;6.378;2023-03-23T00:37:21;41.85;39.70;45.60;;
56099;Laerm;44276;49.534;6.378;2023-03-23T00:39:48;42.07;39.58;48.76;;
56099;Laerm;44276;49.534;6.378;2023-03-23T00:42:17;41.42;39.58;43.34;;
56099;Laerm;44276;49.534;6.378;2023-03-23T00:44:46;42.09;39.70;51.77;;
56099;Laerm;44276;49.534;6.378;2023-03-23T00:47:14;41.35;39.46;42.76;;
56099;Laerm;44276;49.534;6.378;2023-03-23T00:49:44;41.38;39.46;42.88;;
56099;Laerm;44276;49.534;6.378;2023-03-23T00:52:11;41.78;39.34;46.43;;
56099;Laerm;44276;49.534;6.378;2023-03-23T00:54:38;41.82;39.81;48.51;;
56099;Laerm;44276;49.534;6.378;2023-03-23T00:57:05;41.45;39.58;42.98;;
56099;Laerm;44276;49.534;6.378;2023-03-23T00:59:32;41.49;39.21;43.24;;
56099;Laerm;44276;49.534;6.378;2023-03-23T01:02:00;41.62;39.70;45.62;;
56099;Laerm;44276;49.534;6.378;2023-03-23T01:04:27;41.64;39.70;44.31;;
56099;Laerm;44276;49.534;6.378;2023-03-23T01:06:58;41.67;38.95;47.46;;
56099;Laerm;44276;49.534;6.378;2023-03-23T01:09:26;41.81;39.58;45.07;;
56099;Laerm;44276;49.534;6.378;2023-03-23T01:11:54;42.17;39.92;51.25;;
56099;Laerm;44276;49.534;6.378;2023-03-23T01:14:22;42.19;39.58;49.87;;
56099;Laerm;44276;49.534;6.378;2023-03-23T01:16:51;41.83;39.92;46.18;;
56099;Laerm;44276;49.534;6.378;2023-03-23T01:19:18;41.64;39.92;44.80;;
56099;Laerm;44276;49.534;6.378;2023-03-23T01:21:45;42.35;40.03;49.32;;
56099;Laerm;44276;49.534;6.378;2023-03-23T01:24:13;42.70;40.03;52.86;;
56099;Laerm;44276;49.534;6.378;2023-03-23T01:26:40;42.70;40.23;50.30;;
56099;Laerm;44276;49.534;6.378;2023-03-23T01:29:07;43.63;40.23;60.18;;
56099;Laerm;44276;49.534;6.378;2023-03-23T01:31:35;43.28;40.43;55.02;;
56099;Laerm;44276;49.534;6.378;2023-03-23T01:34:03;44.19;40.43;55.25;;
56099;Laerm;44276;49.534;6.378;2023-03-23T01:36:31;42.48;40.71;56.01;;
56099;Laerm;44276;49.534;6.378;2023-03-23T01:39:00;43.67;40.89;53.74;;
56099;Laerm;44276;49.534;6.378;2023-03-23T01:41:30;44.09;40.98;55.55;;
56099;Laerm;44276;49.534;6.378;2023-03-23T01:44:03;43.41;40.71;53.29;;
56099;Laerm;44276;49.534;6.378;2023-03-23T01:46:31;42.59;40.80;48.98;;
56099;Laerm;44276;49.534;6.378;2023-03-23T01:49:05;42.36;40.62;46.28;;
56099;Laerm;44276;49.534;6.378;2023-03-23T01:51:37;42.58;40.89;49.18;;
56099;Laerm;44276;49.534;6.378;2023-03-23T01:54:12;42.82;40.98;48.07;;
56099;Laerm;44276;49.534;6.378;2023-03-23T01:56:52;42.51;40.71;45.54;;
56099;Laerm;44276;49.534;6.378;2023-03-23T01:59:23;42.34;40.80;44.87;;
56099;Laerm;44276;49.534;6.378;2023-03-23T02:01:52;42.84;40.89;49.52;;
56099;Laerm;44276;49.534;6.378;2023-03-23T02:04:22;42.79;40.80;49.55;;
56099;Laerm;44276;49.534;6.378;2023-03-23T02:06:51;43.29;41.06;51.37;;
56099;Laerm;44276;49.534;6.378;2023-03-23T02:09:20;42.69;40.98;46.30;;
56099;Laerm;44276;49.534;6.378;2023-03-23T02:11:49;42.57;40.89;45.30;;
56099;Laerm;44276;49.534;6.378;2023-03-23T02:14:17;42.57;40.62;46.77;;
56099;Laerm;44276;49.534;6.378;2023-03-23T02:16:52;42.24;40.62;43.99;;
56099;Laerm;44276;49.534;6.378;2023-03-23T02:19:54;42.35;40.89;44.47;;
56099;Laerm;44276;49.534;6.378;2023-03-23T02:32:21;42.32;40.89;44.47;;
56099;Laerm;44276;49.534;6.378;2023-03-23T02:34:59;42.31;40.71;44.87;;
56099;Laerm;44276;49.534;6.378;2023-03-23T02:37:36;42.52;40.89;46.45;;
56099;Laerm;44276;49.534;6.378;2023-03-23T02:40:11;42.27;40.80;44.54;;
56099;Laerm;44276;49.534;6.378;2023-03-23T02:42:45;42.30;40.89;44.03;;
56099;Laerm;44276;49.534;6.378;2023-03-23T02:45:15;42.36;40.62;44.65;;
56099;Laerm;44276;49.534;6.378;2023-03-23T02:47:45;42.30;40.89;46.07;;
56099;Laerm;44276;49.534;6.378;2023-03-23T02:50:17;42.27;40.80;44.47;;
56099;Laerm;44276;49.534;6.378;2023-03-23T02:52:49;42.24;40.33;43.44;;
56099;Laerm;44276;49.534;6.378;2023-03-23T02:55:19;42.34;40.80;44.39;;
56099;Laerm;44276;49.534;6.378;2023-03-23T02:57:51;42.45;40.98;44.80;;
56099;Laerm;44276;49.534;6.378;2023-03-23T03:00:20;42.39;40.80;44.62;;
56099;Laerm;44276;49.534;6.378;2023-03-23T03:02:50;42.37;40.98;44.65;;
56099;Laerm;44276;49.534;6.378;2023-03-23T03:05:35;42.48;40.63;49.52;;
56099;Laerm;44276;49.534;6.378;2023-03-23T03:08:17;42.56;41.06;48.29;;
56099;Laerm;44276;49.534;6.378;2023-03-23T03:10:52;42.75;40.89;47.22;;
56099;Laerm;44276;49.534;6.378;2023-03-23T03:13:33;42.44;41.06;43.90;;
56099;Laerm;44276;49.534;6.378;2023-03-23T03:16:11;42.47;40.71;46.55;;
56099;Laerm;44276;49.534;6.378;2023-03-23T03:18:49;42.51;41.06;45.97;;
56099;Laerm;44276;49.534;6.378;2023-03-23T03:21:23;42.46;40.80;45.80;;
56099;Laerm;44276;49.534;6.378;2023-03-23T03:23:55;42.43;40.80;44.35;;
56099;Laerm;44276;49.534;6.378;2023-03-23T03:26:26;42.42;40.98;45.94;;
56099;Laerm;44276;49.534;6.378;2023-03-23T03:28:55;42.34;40.98;43.58;;
56099;Laerm;44276;49.534;6.378;2023-03-23T03:31:27;42.32;40.89;43.54;;
56099;Laerm;44276;49.534;6.378;2023-03-23T03:33:56;42.37;40.89;43.81;;
56099;Laerm;44276;49.534;6.378;2023-03-23T03:36:31;42.35;40.71;45.40;;
56099;Laerm;44276;49.534;6.378;2023-03-23T03:39:03;42.38;40.89;44.19;;
56099;Laerm;44276;49.534;6.378;2023-03-23T03:41:33;42.37;40.98;44.07;;
56099;Laerm;44276;49.534;6.378;2023-03-23T03:44:01;42.40;40.98;44.69;;
56099;Laerm;44276;49.534;6.378;2023-03-23T03:46:28;42.38;41.22;45.60;;
56099;Laerm;44276;49.534;6.378;2023-03-23T03:48:56;42.47;40.89;45.94;;
56099;Laerm;44276;49.534;6.378;2023-03-23T03:51:24;42.52;41.06;44.54;;
56099;Laerm;44276;49.534;6.378;2023-03-23T03:53:53;42.41;40.98;44.23;;
56099;Laerm;44276;49.534;6.378;2023-03-23T03:56:22;42.42;40.89;45.33;;
56099;Laerm;44276;49.534;6.378;2023-03-23T03:58:50;42.47;40.80;47.20;;
56099;Laerm;44276;49.534;6.378;2023-03-23T04:01:19;42.37;40.98;43.94;;
56099;Laerm;44276;49.534;6.378;2023-03-23T04:03:47;42.47;40.89;44.62;;
56099;Laerm;44276;49.534;6.378;2023-03-23T04:06:15;42.36;40.71;43.86;;
56099;Laerm;44276;49.534;6.378;2023-03-23T04:08:43;42.43;40.89;44.90;;
56099;Laerm;44276;49.534;6.378;2023-03-23T04:11:14;42.40;41.06;45.94;;
56099;Laerm;44276;49.534;6.378;2023-03-23T04:13:41;42.42;40.80;44.19;;
56099;Laerm;44276;49.534;6.378;2023-03-23T04:16:08;42.39;41.06;44.31;;
56099;Laerm;44276;49.534;6.378;2023-03-23T04:18:36;42.35;41.14;44.51;;
56099;Laerm;44276;49.534;6.378;2023-03-23T04:21:05;42.34;40.89;43.63;;
56099;Laerm;44276;49.534;6.378;2023-03-23T04:23:35;42.40;40.98;43.99;;
56099;Laerm;44276;49.534;6.378;2023-03-23T04:26:04;42.34;40.80;43.94;;
56099;Laerm;44276;49.534;6.378;2023-03-23T04:28:32;42.34;40.80;43.81;;
56099;Laerm;44276;49.534;6.378;2023-03-23T04:31:00;42.34;41.06;43.44;;
56099;Laerm;44276;49.534;6.378;2023-03-23T04:33:29;42.34;40.53;43.68;;
56099;Laerm;44276;49.534;6.378;2023-03-23T04:36:00;42.42;40.98;43.99;;
56099;Laerm;44276;49.534;6.378;2023-03-23T04:38:29;42.35;40.71;43.39;;
56099;Laerm;44276;49.534;6.378;2023-03-23T04:40:58;42.39;40.98;44.51;;
56099;Laerm;44276;49.534;6.378;2023-03-23T04:43:28;42.47;40.80;45.20;;
56099;Laerm;44276;49.534;6.378;2023-03-23T04:45:58;42.46;40.98;44.23;;
56099;Laerm;44276;49.534;6.378;2023-03-23T04:48:30;42.42;41.06;44.49;;
56099;Laerm;44276;49.534;6.378;2023-03-23T04:51:00;42.43;40.89;44.31;;
56099;Laerm;44276;49.534;6.378;2023-03-23T04:53:28;42.41;40.98;43.90;;
56099;Laerm;44276;49.534;6.378;2023-03-23T04:55:56;42.38;41.11;43.77;;
56099;Laerm;44276;49.534;6.378;2023-03-23T04:58:23;42.41;40.98;44.62;;
56099;Laerm;44276;49.534;6.378;2023-03-23T05:00:50;42.52;40.89;45.30;;
56099;Laerm;44276;49.534;6.378;2023-03-23T05:03:19;42.44;41.22;44.73;;
56099;Laerm;44276;49.534;6.378;2023-03-23T05:05:47;42.35;40.98;43.68;;
56099;Laerm;44276;49.534;6.378;2023-03-23T05:08:18;42.36;40.71;43.94;;
56099;Laerm;44276;49.534;6.378;2023-03-23T05:10:51;42.38;40.88;43.72;;
56099;Laerm;44276;49.534;6.378;2023-03-23T05:13:19;42.37;40.89;43.81;;
56099;Laerm;44276;49.534;6.378;2023-03-23T05:15:46;42.39;41.03;44.15;;
56099;Laerm;44276;49.534;6.378;2023-03-23T05:18:13;42.47;41.14;44.73;;
56099;Laerm;44276;49.534;6.378;2023-03-23T05:20:42;42.38;40.89;43.54;;
56099;Laerm;44276;49.534;6.378;2023-03-23T05:23:12;42.38;40.98;43.63;;
56099;Laerm;44276;49.534;6.378;2023-03-23T05:25:40;42.38;40.80;43.72;;
56099;Laerm;44276;49.534;6.378;2023-03-23T05:28:07;42.37;41.14;43.94;;
56099;Laerm;44276;49.534;6.378;2023-03-23T05:30:37;42.36;40.80;43.54;;
56099;Laerm;44276;49.534;6.378;2023-03-23T05:33:05;42.37;40.71;43.81;;
56099;Laerm;44276;49.534;6.378;2023-03-23T05:35:32;42.36;40.98;43.49;;
56099;Laerm;44276;49.534;6.378;2023-03-23T05:38:00;42.36;40.71;43.68;;
56099;Laerm;44276;49.534;6.378;2023-03-23T05:40:29;42.39;40.98;43.81;;
56099;Laerm;44276;49.534;6.378;2023-03-23T05:42:56;42.39;40.62;43.72;;
56099;Laerm;44276;49.534;6.378;2023-03-23T05:45:25;42.40;40.98;43.63;;
56099;Laerm;44276;49.534;6.378;2023-03-23T05:47:52;42.44;41.06;44.62;;
56099;Laerm;44276;49.534;6.378;2023-03-23T05:50:19;42.49;41.22;44.39;;
56099;Laerm;44276;49.534;6.378;2023-03-23T05:52:47;42.41;40.98;44.03;;
56099;Laerm;44276;49.534;6.378;2023-03-23T05:55:15;42.42;41.14;43.72;;
56099;Laerm;44276;49.534;6.378;2023-03-23T05:57:42;42.44;41.06;44.15;;
56099;Laerm;44276;49.534;6.378;2023-03-23T06:00:10;42.39;40.89;43.58;;
56099;Laerm;44276;49.534;6.378;2023-03-23T06:02:47;42.41;40.89;43.58;;
56099;Laerm;44276;49.534;6.378;2023-03-23T06:05:15;42.46;40.71;44.15;;
56099;Laerm;44276;49.534;6.378;2023-03-23T06:07:42;42.59;41.22;45.66;;
56099;Laerm;44276;49.534;6.378;2023-03-23T06:10:10;42.51;40.98;45.11;;
56099;Laerm;44276;49.534;6.378;2023-03-23T06:12:39;42.64;40.89;45.75;;
56099;Laerm;44276;49.534;6.378;2023-03-23T06:15:08;42.61;40.89;45.48;;
56099;Laerm;44276;49.534;6.378;2023-03-23T06:17:35;42.47;40.89;44.47;;
56099;Laerm;44276;49.534;6.378;2023-03-23T06:20:04;42.58;41.06;47.14;;
56099;Laerm;44276;49.534;6.378;2023-03-23T06:22:36;42.50;41.06;44.15;;
56099;Laerm;44276;49.534;6.378;2023-03-23T06:25:06;42.65;40.98;46.71;;
56099;Laerm;44276;49.534;6.378;2023-03-23T06:27:34;42.52;41.11;44.19;;
56099;Laerm;44276;49.534;6.378;2023-03-23T06:30:05;42.51;41.06;44.76;;
56099;Laerm;44276;49.534;6.378;2023-03-23T06:32:33;42.58;41.22;46.97;;
56099;Laerm;44276;49.534;6.378;2023-03-23T06:35:03;42.50;40.98;44.87;;
56099;Laerm;44276;49.534;6.378;2023-03-23T06:37:30;42.65;41.06;44.97;;
56099;Laerm;44276;49.534;6.378;2023-03-23T06:39:57;42.54;41.14;44.27;;
56099;Laerm;44276;49.534;6.378;2023-03-23T06:42:24;42.56;41.14;44.58;;
56099;Laerm;44276;49.534;6.378;2023-03-23T06:44:52;42.92;41.14;48.12;;
56099;Laerm;44276;49.534;6.378;2023-03-23T06:47:24;42.75;41.22;46.55;;
56099;Laerm;44276;49.534;6.378;2023-03-23T06:49:51;42.67;40.89;44.58;;
56099;Laerm;44276;49.534;6.378;2023-03-23T06:52:19;42.66;40.89;45.77;;
56099;Laerm;44276;49.534;6.378;2023-03-23T06:54:46;42.73;41.22;49.32;;
56099;Laerm;44276;49.534;6.378;2023-03-23T06:57:13;42.69;40.98;48.88;;
56099;Laerm;44276;49.534;6.378;2023-03-23T06:59:40;42.62;40.80;46.03;;
56099;Laerm;44276;49.534;6.378;2023-03-23T07:02:09;42.46;41.14;44.07;;
56099;Laerm;44276;49.534;6.378;2023-03-23T07:04:38;42.51;41.06;44.23;;
56099;Laerm;44276;49.534;6.378;2023-03-23T07:07:08;42.47;40.98;43.77;;
56099;Laerm;44276;49.534;6.378;2023-03-23T07:09:36;42.47;41.14;43.99;;
56099;Laerm;44276;49.534;6.378;2023-03-23T07:12:05;42.42;40.98;43.90;;
56099;Laerm;44276;49.534;6.378;2023-03-23T07:14:32;42.45;41.06;44.69;;
56099;Laerm;44276;49.534;6.378;2023-03-23T07:16:59;42.49;41.22;44.27;;
56099;Laerm;44276;49.534;6.378;2023-03-23T07:19:26;42.41;40.71;43.68;;
56099;Laerm;44276;49.534;6.378;2023-03-23T07:21:55;42.65;41.22;45.45;;
56099;Laerm;44276;49.534;6.378;2023-03-23T07:24:22;42.52;40.89;44.47;;
56099;Laerm;44276;49.534;6.378;2023-03-23T07:26:49;42.39;40.98;43.68;;
56099;Laerm;44276;49.534;6.378;2023-03-23T07:29:16;42.39;41.14;43.44;;
56099;Laerm;44276;49.534;6.378;2023-03-23T07:31:43;42.45;40.62;44.15;;
56099;Laerm;44276;49.534;6.378;2023-03-23T07:34:10;42.44;40.98;43.63;;
56099;Laerm;44276;49.534;6.378;2023-03-23T07:36:38;42.63;40.89;45.01;;
56099;Laerm;44276;49.534;6.378;2023-03-23T07:39:06;42.42;40.80;43.77;;
56099;Laerm;44276;49.534;6.378;2023-03-23T07:41:33;42.42;41.06;43.77;;
56099;Laerm;44276;49.534;6.378;2023-03-23T07:44:01;42.51;40.89;45.48;;
56099;Laerm;44276;49.534;6.378;2023-03-23T07:46:28;42.45;41.14;44.27;;
56099;Laerm;44276;49.534;6.378;2023-03-23T07:48:55;42.55;40.80;47.59;;
56099;Laerm;44276;49.534;6.378;2023-03-23T07:51:22;42.49;40.89;44.39;;
56099;Laerm;44276;49.534;6.378;2023-03-23T07:53:50;42.49;41.26;44.39;;
56099;Laerm;44276;49.534;6.378;2023-03-23T07:56:19;42.45;41.06;44.65;;
56099;Laerm;44276;49.534;6.378;2023-03-23T07:58:46;42.46;40.96;44.15;;
56099;Laerm;44276;49.534;6.378;2023-03-23T08:01:14;42.46;41.06;44.69;;
56099;Laerm;44276;49.534;6.378;2023-03-23T08:03:42;42.43;41.06;43.86;;
56099;Laerm;44276;49.534;6.378;2023-03-23T08:06:10;42.52;40.98;44.42;;
56099;Laerm;44276;49.534;6.378;2023-03-23T08:08:37;42.53;41.14;45.01;;
56099;Laerm;44276;49.534;6.378;2023-03-23T08:11:06;42.53;40.98;44.76;;
56099;Laerm;44276;49.534;6.378;2023-03-23T08:13:35;42.46;40.89;44.39;;
56099;Laerm;44276;49.534;6.378;2023-03-23T08:16:03;42.48;41.22;43.99;;
56099;Laerm;44276;49.534;6.378;2023-03-23T08:18:30;42.47;41.14;44.35;;
56099;Laerm;44276;49.534;6.378;2023-03-23T08:21:00;42.51;41.06;45.54;;
56099;Laerm;44276;49.534;6.378;2023-03-23T08:23:27;42.52;41.06;45.54;;
56099;Laerm;44276;49.534;6.378;2023-03-23T08:25:54;42.59;41.14;46.82;;
56099;Laerm;44276;49.534;6.378;2023-03-23T08:28:22;42.53;41.14;46.18;;
56099;Laerm;44276;49.534;6.378;2023-03-23T08:30:50;42.47;41.14;44.62;;
56099;Laerm;44276;49.534;6.378;2023-03-23T08:33:18;42.50;40.89;44.11;;
56099;Laerm;44276;49.534;6.378;2023-03-23T08:35:55;42.44;40.98;43.58;;
56099;Laerm;44276;49.534;6.378;2023-03-23T08:38:23;42.47;41.14;44.35;;
56099;Laerm;44276;49.534;6.378;2023-03-23T08:40:50;42.54;40.98;44.87;;
56099;Laerm;44276;49.534;6.378;2023-03-23T08:43:18;42.45;41.14;43.54;;
56099;Laerm;44276;49.534;6.378;2023-03-23T08:45:45;42.46;40.80;43.76;;
56099;Laerm;44276;49.534;6.378;2023-03-23T08:48:13;42.47;40.62;43.81;;
56099;Laerm;44276;49.534;6.378;2023-03-23T08:50:40;42.50;41.14;44.11;;
56099;Laerm;44276;49.534;6.378;2023-03-23T08:53:07;42.46;41.14;43.63;;
56099;Laerm;44276;49.534;6.378;2023-03-23T08:55:35;42.48;41.14;43.77;;
56099;Laerm;44276;49.534;6.378;2023-03-23T08:58:02;42.54;40.89;44.54;;
56099;Laerm;44276;49.534;6.378;2023-03-23T09:00:31;42.50;41.06;43.77;;
56099;Laerm;44276;49.534;6.378;2023-03-23T09:02:58;42.48;41.14;44.11;;
56099;Laerm;44276;49.534;6.378;2023-03-23T09:05:28;42.52;41.14;44.07;;
56099;Laerm;44276;49.534;6.378;2023-03-23T09:07:57;42.46;40.80;43.54;;
56099;Laerm;44276;49.534;6.378;2023-03-23T09:10:26;42.54;41.22;45.36;;
56099;Laerm;44276;49.534;6.378;2023-03-23T09:12:54;42.50;41.06;43.90;;
56099;Laerm;44276;49.534;6.378;2023-03-23T09:15:23;42.55;41.22;44.43;;
56099;Laerm;44276;49.534;6.378;2023-03-23T09:17:53;42.53;41.14;44.83;;
56099;Laerm;44276;49.534;6.378;2023-03-23T09:20:24;42.56;41.14;46.05;;
56099;Laerm;44276;49.534;6.378;2023-03-23T09:22:56;42.53;41.22;44.03;;
56099;Laerm;44276;49.534;6.378;2023-03-23T09:25:27;42.56;40.89;45.36;;
56099;Laerm;44276;49.534;6.378;2023-03-23T09:27:57;42.63;40.80;46.40;;
56099;Laerm;44276;49.534;6.378;2023-03-23T09:30:28;42.57;41.22;44.65;;
56099;Laerm;44276;49.534;6.378;2023-03-23T09:32:55;42.52;41.14;43.68;;
56099;Laerm;44276;49.534;6.378;2023-03-23T09:35:24;42.53;41.14;43.77;;
56099;Laerm;44276;49.534;6.378;2023-03-23T09:37:53;42.63;41.22;44.51;;
56099;Laerm;44276;49.534;6.378;2023-03-23T09:40:23;42.66;41.14;45.42;;
56099;Laerm;44276;49.534;6.378;2023-03-23T09:43:06;42.58;41.38;44.11;;
56099;Laerm;44276;49.534;6.378;2023-03-23T09:45:45;42.58;41.30;44.03;;
56099;Laerm;44276;49.534;6.378;2023-03-23T09:48:36;42.57;41.30;43.72;;
56099;Laerm;44276;49.534;6.378;2023-03-23T09:51:16;42.58;41.06;43.94;;
56099;Laerm;44276;49.534;6.378;2023-03-23T09:53:54;42.61;41.46;45.07;;
56099;Laerm;44276;49.534;6.378;2023-03-23T09:56:30;42.57;41.06;43.63;;
56099;Laerm;44276;49.534;6.378;2023-03-23T09:59:02;42.59;41.14;43.90;;
56099;Laerm;44276;49.534;6.378;2023-03-23T10:01:37;42.61;41.22;43.77;;
56099;Laerm;44276;49.534;6.378;2023-03-23T10:04:14;42.65;40.80;44.42;;
56099;Laerm;44276;49.534;6.378;2023-03-23T10:06:46;42.68;41.22;44.87;;
56099;Laerm;44276;49.534;6.378;2023-03-23T10:09:19;42.73;41.22;46.23;;
56099;Laerm;44276;49.534;6.378;2023-03-23T10:11:57;42.78;41.38;44.97;;
56099;Laerm;44276;49.534;6.378;2023-03-23T10:14:52;42.82;41.22;45.04;;
56099;Laerm;44276;49.534;6.378;2023-03-23T10:17:28;42.75;41.38;44.07;;
56099;Laerm;44276;49.534;6.378;2023-03-23T10:20:10;42.73;41.30;43.81;;
56099;Laerm;44276;49.534;6.378;2023-03-23T10:22:51;42.74;41.53;43.81;;
56099;Laerm;44276;49.534;6.378;2023-03-23T10:25:24;42.75;41.38;44.47;;
56099;Laerm;44276;49.534;6.378;2023-03-23T10:28:03;42.82;41.38;43.94;;
56099;Laerm;44276;49.534;6.378;2023-03-23T10:30:36;42.77;41.38;43.90;;
56099;Laerm;44276;49.534;6.378;2023-03-23T10:33:11;42.86;41.22;44.39;;
56099;Laerm;44276;49.534;6.378;2023-03-23T10:35:47;42.78;41.48;44.03;;
56099;Laerm;44276;49.534;6.378;2023-03-23T10:38:23;42.79;41.46;44.47;;
56099;Laerm;44276;49.534;6.378;2023-03-23T10:40:59;42.95;41.68;45.23;;
56099;Laerm;44276;49.534;6.378;2023-03-23T10:43:29;42.82;41.38;44.03;;
56099;Laerm;44276;49.534;6.378;2023-03-23T10:46:02;42.86;41.38;44.83;;
56099;Laerm;44276;49.534;6.378;2023-03-23T10:48:33;42.80;41.30;43.99;;
56099;Laerm;44276;49.534;6.378;2023-03-23T10:51:10;42.77;41.53;44.03;;
56099;Laerm;44276;49.534;6.378;2023-03-23T10:53:44;42.75;41.53;43.86;;
56099;Laerm;44276;49.534;6.378;2023-03-23T10:56:23;42.75;41.30;43.99;;
56099;Laerm;44276;49.534;6.378;2023-03-23T10:58:51;42.74;41.61;44.35;;
56099;Laerm;44276;49.534;6.378;2023-03-23T11:01:29;42.78;41.30;44.15;;
56099;Laerm;44276;49.534;6.378;2023-03-23T11:04:00;42.81;41.61;43.86;;
56099;Laerm;44276;49.534;6.378;2023-03-23T11:06:31;42.75;41.46;44.03;;
56099;Laerm;44276;49.534;6.378;2023-03-23T11:09:12;42.83;41.61;44.27;;
56099;Laerm;44276;49.534;6.378;2023-03-23T11:11:43;42.84;41.38;43.99;;
56099;Laerm;44276;49.534;6.378;2023-03-23T11:14:19;42.97;41.61;46.69;;
56099;Laerm;44276;49.534;6.378;2023-03-23T11:16:52;43.01;41.30;46.05;;
56099;Laerm;44276;49.534;6.378;2023-03-23T11:19:27;43.05;41.46;49.72;;
56099;Laerm;44276;49.534;6.378;2023-03-23T11:22:04;43.01;41.68;47.16;;
56099;Laerm;44276;49.534;6.378;2023-03-23T11:24:35;42.95;41.46;52.11;;
56099;Laerm;44276;49.534;6.378;2023-03-23T11:27:07;42.71;41.38;43.90;;
56099;Laerm;44276;49.534;6.378;2023-03-23T11:29:48;42.76;41.46;44.90;;
56099;Laerm;44276;49.534;6.378;2023-03-23T11:32:19;42.77;41.22;45.45;;
56099;Laerm;44276;49.534;6.378;2023-03-23T11:34:54;42.78;41.22;45.51;;
56099;Laerm;44276;49.534;6.378;2023-03-23T11:37:29;42.69;41.14;44.76;;
56099;Laerm;44276;49.534;6.378;2023-03-23T11:39:59;42.69;41.14;45.01;;
56099;Laerm;44276;49.534;6.378;2023-03-23T11:42:42;42.57;41.30;43.77;;
56099;Laerm;44276;49.534;6.378;2023-03-23T11:45:18;42.65;41.30;44.58;;
56099;Laerm;44276;49.534;6.378;2023-03-23T11:48:01;42.68;41.06;46.30;;
56099;Laerm;44276;49.534;6.378;2023-03-23T11:50:34;42.66;41.38;44.35;;
56099;Laerm;44276;49.534;6.378;2023-03-23T11:53:12;42.67;41.30;44.19;;
56099;Laerm;44276;49.534;6.378;2023-03-23T11:55:58;42.67;40.98;45.89;;
56099;Laerm;44276;49.534;6.378;2023-03-23T11:58:29;42.57;41.06;43.94;;
56099;Laerm;44276;49.534;6.378;2023-03-23T12:01:06;42.81;41.38;50.13;;
56099;Laerm;44276;49.534;6.378;2023-03-23T12:04:00;42.89;41.30;47.74;;
56099;Laerm;44276;49.534;6.378;2023-03-23T12:06:41;43.01;41.22;49.44;;
56099;Laerm;44276;49.534;6.378;2023-03-23T12:09:30;43.37;41.22;51.59;;
56099;Laerm;44276;49.534;6.378;2023-03-23T12:12:15;43.06;41.14;50.56;;
56099;Laerm;44276;49.534;6.378;2023-03-23T12:14:56;42.92;41.22;48.90;;
56099;Laerm;44276;49.534;6.378;2023-03-23T12:17:40;42.82;40.89;49.69;;
56099;Laerm;44276;49.534;6.378;2023-03-23T12:20:24;42.82;41.14;48.10;;
56099;Laerm;44276;49.534;6.378;2023-03-23T12:23:08;42.90;41.30;46.18;;
56099;Laerm;44276;49.534;6.378;2023-03-23T12:26:19;42.64;41.22;48.21;;
56099;Laerm;44276;49.534;6.378;2023-03-23T12:29:23;42.94;41.14;47.55;;
56099;Laerm;44276;49.534;6.378;2023-03-23T12:32:19;42.74;41.38;49.56;;
56099;Laerm;44276;49.534;6.378;2023-03-23T12:34:54;42.83;41.06;47.48;;
56099;Laerm;44276;49.534;6.378;2023-03-23T12:37:43;42.89;41.22;49.90;;
56099;Laerm;44276;49.534;6.378;2023-03-23T12:40:48;42.81;41.30;47.98;;
56099;Laerm;44276;49.534;6.378;2023-03-23T12:43:28;42.67;41.14;46.76;;
56099;Laerm;44276;49.534;6.378;2023-03-23T12:46:14;42.95;41.14;49.95;;
56099;Laerm;44276;49.534;6.378;2023-03-23T12:48:53;44.29;41.22;56.17;;
56099;Laerm;44276;49.534;6.378;2023-03-23T12:51:31;42.67;41.22;45.91;;
56099;Laerm;44276;49.534;6.378;2023-03-23T12:54:13;42.82;41.22;46.15;;
56099;Laerm;44276;49.534;6.378;2023-03-23T12:56:52;43.07;41.22;52.80;;
56099;Laerm;44276;49.534;6.378;2023-03-23T12:59:28;43.38;41.14;50.90;;
56099;Laerm;44276;49.534;6.378;2023-03-23T13:02:09;43.93;41.61;55.00;;
56099;Laerm;44276;49.534;6.378;2023-03-23T13:04:44;43.45;41.38;52.66;;
56099;Laerm;44276;49.534;6.378;2023-03-23T13:07:18;42.96;41.19;55.39;;
56099;Laerm;44276;49.534;6.378;2023-03-23T13:09:55;43.72;41.14;54.83;;
56099;Laerm;44276;49.534;6.378;2023-03-23T13:12:26;43.03;41.46;47.48;;
56099;Laerm;44276;49.534;6.378;2023-03-23T13:15:04;42.84;41.22;46.28;;
56099;Laerm;44276;49.534;6.378;2023-03-23T13:17:43;43.14;41.14;53.24;;
56099;Laerm;44276;49.534;6.378;2023-03-23T13:20:53;44.39;41.14;58.43;;
56099;Laerm;44276;49.534;6.378;2023-03-23T13:23:23;43.35;41.30;50.97;;
56099;Laerm;44276;49.534;6.378;2023-03-23T13:25:59;45.78;41.38;59.29;;
56099;Laerm;44276;49.534;6.378;2023-03-23T13:28:30;45.17;41.22;57.67;;
56099;Laerm;44276;49.534;6.378;2023-03-23T13:31:02;43.31;41.30;52.00;;
56099;Laerm;44276;49.534;6.378;2023-03-23T13:33:34;45.09;41.30;59.11;;
56099;Laerm;44276;49.534;6.378;2023-03-23T13:36:12;45.11;41.30;59.85;;
56099;Laerm;44276;49.534;6.378;2023-03-23T13:38:48;44.06;41.14;55.70;;
56099;Laerm;44276;49.534;6.378;2023-03-23T13:41:21;43.27;41.30;51.87;;
56099;Laerm;44276;49.534;6.378;2023-03-23T13:44:23;43.14;41.30;51.77;;
56099;Laerm;44276;49.534;6.378;2023-03-23T13:47:14;43.48;41.30;51.67;;
56099;Laerm;44276;49.534;6.378;2023-03-23T13:49:52;43.37;41.22;54.21;;
56099;Laerm;44276;49.534;6.378;2023-03-23T13:52:35;43.71;41.14;52.84;;
56099;Laerm;44276;49.534;6.378;2023-03-23T13:55:30;43.10;40.98;51.38;;
56099;Laerm;44276;49.534;6.378;2023-03-23T13:58:10;43.68;41.14;58.30;;
56099;Laerm;44276;49.534;6.378;2023-03-23T14:00:50;43.58;41.11;53.86;;
56099;Laerm;44276;49.534;6.378;2023-03-23T14:03:25;43.35;41.14;51.31;;
56099;Laerm;44276;49.534;6.378;2023-03-23T14:06:05;43.42;41.14;51.50;;
56099;Laerm;44276;49.534;6.378;2023-03-23T14:08:43;42.75;40.89;49.55;;
56099;Laerm;44276;49.534;6.378;2023-03-23T14:11:16;42.77;41.38;48.32;;
56099;Laerm;44276;49.534;6.378;2023-03-23T14:14:01;42.89;41.06;46.89;;
56099;Laerm;44276;49.534;6.378;2023-03-23T14:16:38;43.28;41.14;49.52;;
56099;Laerm;44276;49.534;6.378;2023-03-23T14:19:19;43.52;40.98;54.40;;
56099;Laerm;44276;49.534;6.378;2023-03-23T14:21:53;43.36;41.06;52.19;;